createdAt,value
2017-07-30T00:00:28.256Z,0
2017-07-30T00:01:28.227Z,0
2017-07-30T00:02:27.894Z,0
2017-07-30T00:03:28.185Z,0
2017-07-30T00:04:28.153Z,0
2017-07-30T00:05:28.190Z,0
2017-07-30T00:06:28.122Z,0
2017-07-30T00:07:28.104Z,0
2017-07-30T00:08:28.137Z,0
2017-07-30T00:09:27.763Z,0
2017-07-30T00:10:28.042Z,0
2017-07-30T00:11:28.017Z,0
2017-07-30T00:12:28.012Z,0
2017-07-30T00:13:27.990Z,0
2017-07-30T00:14:27.979Z,0
2017-07-30T00:15:27.944Z,0
2017-07-30T00:16:27.981Z,0
2017-07-30T00:17:27.913Z,0
2017-07-30T00:18:27.950Z,0
2017-07-30T00:19:27.879Z,0
2017-07-30T00:20:42.464Z,0
2017-07-30T00:21:27.532Z,0
2017-07-30T00:22:27.524Z,0
2017-07-30T00:23:27.802Z,0
2017-07-30T00:24:27.831Z,0
2017-07-30T00:25:27.808Z,0
2017-07-30T00:26:27.740Z,0
2017-07-30T00:27:27.723Z,0
2017-07-30T00:28:27.696Z,0
2017-07-30T00:29:27.388Z,0
2017-07-30T00:30:27.661Z,0
2017-07-30T00:31:27.641Z,0
2017-07-30T00:32:27.031Z,0
2017-07-30T00:33:27.600Z,0
2017-07-30T00:34:27.291Z,0
2017-07-30T00:35:27.574Z,0
2017-07-30T00:36:27.560Z,0
2017-07-30T00:37:27.539Z,0
2017-07-30T00:38:27.520Z,0
2017-07-30T00:39:27.494Z,0
2017-07-30T00:40:27.477Z,0
2017-07-30T00:41:27.461Z,0
2017-07-30T00:42:27.750Z,0
2017-07-30T00:43:27.471Z,0
2017-07-30T00:44:27.403Z,0
2017-07-30T00:45:27.413Z,0
2017-07-30T00:46:27.369Z,0
2017-07-30T00:47:27.045Z,0
2017-07-30T00:48:27.322Z,0
2017-07-30T00:49:27.314Z,0
2017-07-30T00:50:27.289Z,0
2017-07-30T00:51:27.326Z,0
2017-07-30T00:52:27.252Z,0
2017-07-30T00:53:27.228Z,0
2017-07-30T00:54:27.211Z,0
2017-07-30T00:55:27.192Z,0
2017-07-30T00:56:27.174Z,0
2017-07-30T00:57:27.150Z,0
2017-07-30T00:58:27.135Z,0
2017-07-30T00:59:27.121Z,0
2017-07-30T01:00:27.098Z,0
2017-07-30T01:01:27.078Z,0
2017-07-30T01:02:27.064Z,0
2017-07-30T01:03:27.041Z,0
2017-07-30T01:04:26.721Z,0
2017-07-30T01:05:26.997Z,0
2017-07-30T01:06:26.980Z,0
2017-07-30T01:07:26.987Z,0
2017-07-30T01:08:26.941Z,0
2017-07-30T01:09:26.937Z,0
2017-07-30T01:10:26.599Z,0
2017-07-30T01:11:26.898Z,0
2017-07-30T01:12:26.867Z,0
2017-07-30T01:13:26.858Z,0
2017-07-30T01:14:26.840Z,0
2017-07-30T01:15:26.867Z,0
2017-07-30T01:16:26.796Z,0
2017-07-30T01:17:26.820Z,0
2017-07-30T01:18:26.747Z,0
2017-07-30T01:19:26.730Z,0
2017-07-30T01:20:26.708Z,0
2017-07-30T01:21:26.697Z,0
2017-07-30T01:22:26.670Z,0
2017-07-30T01:23:26.656Z,0
2017-07-30T01:24:26.636Z,0
2017-07-30T01:25:26.661Z,0
2017-07-30T01:26:26.298Z,0
2017-07-30T01:27:26.590Z,0
2017-07-30T01:28:26.547Z,0
2017-07-30T01:29:26.540Z,0
2017-07-30T01:30:26.515Z,0
2017-07-30T01:31:26.495Z,0
2017-07-30T01:32:26.174Z,0
2017-07-30T01:33:26.465Z,0
2017-07-30T01:34:26.495Z,0
2017-07-30T01:35:26.516Z,0
2017-07-30T01:36:26.395Z,0
2017-07-30T01:37:26.384Z,0
2017-07-30T01:38:26.365Z,0
2017-07-30T01:39:26.350Z,0
2017-07-30T01:40:26.430Z,0
2017-07-30T01:41:26.301Z,0
2017-07-30T01:42:26.296Z,0
2017-07-30T01:43:26.265Z,0
2017-07-30T01:44:26.251Z,0
2017-07-30T01:45:26.227Z,0
2017-07-30T01:46:26.209Z,0
2017-07-30T01:47:26.197Z,0
2017-07-30T01:48:26.173Z,0
2017-07-30T01:49:26.153Z,0
2017-07-30T01:50:26.147Z,0
2017-07-30T01:51:26.115Z,0
2017-07-30T01:52:25.787Z,0
2017-07-30T01:53:26.128Z,0
2017-07-30T01:54:26.107Z,0
2017-07-30T01:55:26.043Z,0
2017-07-30T01:56:26.063Z,0
2017-07-30T01:57:26.002Z,0
2017-07-30T01:58:25.980Z,0
2017-07-30T01:59:25.964Z,0
2017-07-30T02:00:25.955Z,0
2017-07-30T02:01:25.913Z,0
2017-07-30T02:02:25.910Z,0
2017-07-30T02:03:25.888Z,0
2017-07-30T02:04:25.859Z,0
2017-07-30T02:05:25.899Z,0
2017-07-30T02:06:25.820Z,0
2017-07-30T02:07:25.501Z,0
2017-07-30T02:08:25.789Z,0
2017-07-30T02:09:25.763Z,0
2017-07-30T02:10:25.748Z,0
2017-07-30T02:11:25.741Z,0
2017-07-30T02:12:25.709Z,0
2017-07-30T02:13:25.686Z,0
2017-07-30T02:14:25.667Z,0
2017-07-30T02:15:25.365Z,0
2017-07-30T02:16:25.633Z,0
2017-07-30T02:17:25.612Z,0
2017-07-30T02:18:25.610Z,0
2017-07-30T02:19:25.576Z,0
2017-07-30T02:20:25.566Z,0
2017-07-30T02:21:25.533Z,0
2017-07-30T02:22:25.574Z,0
2017-07-30T02:23:25.195Z,0
2017-07-30T02:24:25.483Z,0
2017-07-30T02:25:25.461Z,0
2017-07-30T02:26:25.452Z,0
2017-07-30T02:27:25.522Z,0
2017-07-30T02:28:25.400Z,0
2017-07-30T02:29:25.385Z,0
2017-07-30T02:30:25.374Z,0
2017-07-30T02:31:25.367Z,0
2017-07-30T02:32:25.343Z,0
2017-07-30T02:33:25.364Z,0
2017-07-30T02:34:25.335Z,0
2017-07-30T02:35:25.323Z,0
2017-07-30T02:36:24.941Z,0
2017-07-30T02:37:25.233Z,0
2017-07-30T02:38:25.212Z,0
2017-07-30T02:39:25.185Z,0
2017-07-30T02:40:25.173Z,0
2017-07-30T02:41:25.148Z,0
2017-07-30T02:42:25.153Z,0
2017-07-30T02:43:25.132Z,0
2017-07-30T02:44:25.094Z,0
2017-07-30T02:45:25.065Z,0
2017-07-30T02:46:25.058Z,0
2017-07-30T02:47:25.027Z,0
2017-07-30T02:48:25.009Z,0
2017-07-30T02:49:25.056Z,0
2017-07-30T02:50:24.981Z,0
2017-07-30T02:51:24.963Z,0
2017-07-30T02:52:24.949Z,0
2017-07-30T02:53:24.915Z,0
2017-07-30T02:54:24.898Z,0
2017-07-30T02:55:25.127Z,0
2017-07-30T02:56:24.859Z,0
2017-07-30T02:57:24.841Z,0
2017-07-30T02:58:24.832Z,0
2017-07-30T02:59:24.812Z,0
2017-07-30T03:00:24.777Z,0
2017-07-30T03:01:24.465Z,0
2017-07-30T03:02:24.757Z,0
2017-07-30T03:03:24.719Z,0
2017-07-30T03:04:24.714Z,0
2017-07-30T03:05:24.691Z,0
2017-07-30T03:06:24.724Z,0
2017-07-30T03:07:24.646Z,0
2017-07-30T03:08:24.631Z,0
2017-07-30T03:09:24.606Z,0
2017-07-30T03:10:24.587Z,0
2017-07-30T03:11:24.624Z,0
2017-07-30T03:12:24.750Z,0
2017-07-30T03:13:24.525Z,4
2017-07-30T03:14:24.562Z,4
2017-07-30T03:15:24.496Z,4
2017-07-30T03:16:24.486Z,0
2017-07-30T03:17:24.458Z,4
2017-07-30T03:18:24.443Z,4
2017-07-30T03:19:24.420Z,8
2017-07-30T03:20:24.400Z,4
2017-07-30T03:21:24.381Z,8
2017-07-30T03:22:24.364Z,12
2017-07-30T03:23:24.341Z,12
2017-07-30T03:24:24.534Z,12
2017-07-30T03:25:24.002Z,16
2017-07-30T03:26:24.283Z,20
2017-07-30T03:27:24.260Z,20
2017-07-30T03:28:24.255Z,20
2017-07-30T03:29:24.239Z,28
2017-07-30T03:30:24.209Z,28
2017-07-30T03:31:24.467Z,32
2017-07-30T03:32:24.171Z,32
2017-07-30T03:33:24.153Z,32
2017-07-30T03:34:24.040Z,36
2017-07-30T03:35:24.116Z,44
2017-07-30T03:36:24.093Z,48
2017-07-30T03:37:24.068Z,52
2017-07-30T03:38:24.052Z,60
2017-07-30T03:39:24.026Z,68
2017-07-30T03:40:24.016Z,72
2017-07-30T03:41:23.991Z,84
2017-07-30T03:42:23.969Z,88
2017-07-30T03:43:38.562Z,96
2017-07-30T03:44:23.939Z,96
2017-07-30T03:45:23.926Z,96
2017-07-30T03:46:23.899Z,84
2017-07-30T03:47:23.878Z,80
2017-07-30T03:48:23.868Z,88
2017-07-30T03:49:23.835Z,104
2017-07-30T03:50:23.822Z,124
2017-07-30T03:51:23.803Z,144
2017-07-30T03:52:23.786Z,160
2017-07-30T03:53:23.765Z,168
2017-07-30T03:54:23.444Z,172
2017-07-30T03:55:23.820Z,176
2017-07-30T03:56:23.415Z,184
2017-07-30T03:57:23.390Z,196
2017-07-30T03:58:23.666Z,208
2017-07-30T03:59:23.715Z,216
2017-07-30T04:00:23.628Z,232
2017-07-30T04:01:23.609Z,224
2017-07-30T04:02:23.597Z,172
2017-07-30T04:03:23.578Z,160
2017-07-30T04:04:23.245Z,164
2017-07-30T04:05:23.546Z,180
2017-07-30T04:06:23.511Z,180
2017-07-30T04:07:23.687Z,176
2017-07-30T04:08:23.478Z,144
2017-07-30T04:09:23.475Z,136
2017-07-30T04:10:23.438Z,140
2017-07-30T04:11:23.429Z,152
2017-07-30T04:12:23.394Z,188
2017-07-30T04:13:23.375Z,232
2017-07-30T04:14:23.358Z,276
2017-07-30T04:15:23.340Z,316
2017-07-30T04:16:23.319Z,352
2017-07-30T04:17:22.993Z,364
2017-07-30T04:18:23.280Z,404
2017-07-30T04:19:23.294Z,456
2017-07-30T04:20:23.240Z,512
2017-07-30T04:21:23.226Z,548
2017-07-30T04:22:23.205Z,568
2017-07-30T04:23:23.185Z,584
2017-07-30T04:24:23.163Z,580
2017-07-30T04:25:23.557Z,520
2017-07-30T04:26:23.188Z,416
2017-07-30T04:27:23.109Z,348
2017-07-30T04:28:22.844Z,300
2017-07-30T04:29:23.075Z,272
2017-07-30T04:30:22.750Z,276
2017-07-30T04:31:23.030Z,268
2017-07-30T04:32:23.222Z,292
2017-07-30T04:33:23.042Z,336
2017-07-30T04:34:22.969Z,380
2017-07-30T04:35:22.959Z,404
2017-07-30T04:36:22.973Z,400
2017-07-30T04:37:22.919Z,400
2017-07-30T04:38:22.892Z,456
2017-07-30T04:39:22.883Z,504
2017-07-30T04:40:22.858Z,528
2017-07-30T04:41:23.100Z,552
2017-07-30T04:42:22.823Z,588
2017-07-30T04:43:22.803Z,612
2017-07-30T04:44:22.802Z,616
2017-07-30T04:45:22.461Z,560
2017-07-30T04:46:22.451Z,504
2017-07-30T04:47:22.731Z,536
2017-07-30T04:48:22.421Z,508
2017-07-30T04:49:22.682Z,480
2017-07-30T04:50:22.675Z,532
2017-07-30T04:51:22.645Z,636
2017-07-30T04:52:22.635Z,700
2017-07-30T04:53:22.623Z,756
2017-07-30T04:54:22.596Z,828
2017-07-30T04:55:22.583Z,932
2017-07-30T04:56:22.555Z,1104
2017-07-30T04:57:22.532Z,1268
2017-07-30T04:58:22.543Z,1600
2017-07-30T04:59:22.527Z,1872
2017-07-30T05:00:22.481Z,1812
2017-07-30T05:01:22.464Z,1880
2017-07-30T05:02:22.441Z,1976
2017-07-30T05:03:22.438Z,2064
2017-07-30T05:04:22.409Z,2132
2017-07-30T05:05:22.384Z,2160
2017-07-30T05:06:22.372Z,2076
2017-07-30T05:07:22.401Z,1900
2017-07-30T05:08:22.033Z,2004
2017-07-30T05:09:22.322Z,2132
2017-07-30T05:10:22.291Z,2364
2017-07-30T05:11:22.279Z,2496
2017-07-30T05:12:22.305Z,2852
2017-07-30T05:13:22.236Z,3404
2017-07-30T05:14:22.220Z,3568
2017-07-30T05:15:21.996Z,3984
2017-07-30T05:16:22.172Z,4020
2017-07-30T05:17:22.161Z,4320
2017-07-30T05:18:22.143Z,4552
2017-07-30T05:19:22.130Z,4716
2017-07-30T05:20:22.112Z,4360
2017-07-30T05:21:22.133Z,4136
2017-07-30T05:22:22.069Z,3820
2017-07-30T05:23:22.050Z,3388
2017-07-30T05:24:21.724Z,3520
2017-07-30T05:25:22.233Z,4024
2017-07-30T05:26:21.692Z,3784
2017-07-30T05:27:21.980Z,4056
2017-07-30T05:28:21.964Z,4716
2017-07-30T05:29:21.938Z,5084
2017-07-30T05:30:21.913Z,5600
2017-07-30T05:31:21.901Z,5472
2017-07-30T05:32:21.576Z,4848
2017-07-30T05:33:21.555Z,4724
2017-07-30T05:34:21.246Z,4492
2017-07-30T05:35:22.038Z,4236
2017-07-30T05:36:21.861Z,4436
2017-07-30T05:37:21.792Z,4596
2017-07-30T05:38:21.765Z,4788
2017-07-30T05:39:21.752Z,4556
2017-07-30T05:40:21.736Z,4536
2017-07-30T05:41:21.724Z,4988
2017-07-30T05:42:21.746Z,5160
2017-07-30T05:43:21.677Z,5408
2017-07-30T05:44:21.660Z,5336
2017-07-30T05:46:21.329Z,4820
2017-07-30T05:47:21.609Z,6204
2017-07-30T05:48:21.591Z,7560
2017-07-30T05:49:21.582Z,8092
2017-07-30T05:50:21.550Z,7524
2017-07-30T05:51:21.540Z,6384
2017-07-30T05:52:21.514Z,6384
2017-07-30T05:53:21.493Z,6428
2017-07-30T05:54:21.479Z,5748
2017-07-30T05:55:21.230Z,5384
2017-07-30T05:56:21.449Z,5260
2017-07-30T05:57:21.464Z,4820
2017-07-30T05:58:21.155Z,4520
2017-07-30T05:59:21.090Z,5436
2017-07-30T06:00:21.382Z,7504
2017-07-30T06:01:21.043Z,5880
2017-07-30T06:02:21.334Z,5808
2017-07-30T06:03:21.357Z,5860
2017-07-30T06:04:21.298Z,5728
2017-07-30T06:05:21.286Z,6188
2017-07-30T06:06:21.269Z,6572
2017-07-30T06:07:21.456Z,6444
2017-07-30T06:08:20.924Z,14976
2017-07-30T06:09:21.205Z,10280
2017-07-30T06:10:21.193Z,8992
2017-07-30T06:11:21.181Z,10012
2017-07-30T06:12:20.857Z,10228
2017-07-30T06:13:20.838Z,12036
2017-07-30T06:14:20.831Z,10364
2017-07-30T06:15:21.100Z,9960
2017-07-30T06:16:21.849Z,8736
2017-07-30T06:17:21.069Z,7972
2017-07-30T06:18:21.103Z,6772
2017-07-30T06:19:21.066Z,7164
2017-07-30T06:20:21.017Z,8880
2017-07-30T06:21:21.024Z,10296
2017-07-30T06:22:20.982Z,12012
2017-07-30T06:23:20.959Z,14264
2017-07-30T06:24:20.955Z,13892
2017-07-30T06:25:20.940Z,15200
2017-07-30T06:26:20.917Z,13908
2017-07-30T06:27:20.897Z,9232
2017-07-30T06:28:21.133Z,12064
2017-07-30T06:29:20.861Z,22592
2017-07-30T06:30:20.917Z,10544
2017-07-30T06:31:20.839Z,10076
2017-07-30T06:32:20.832Z,18976
2017-07-30T06:33:20.502Z,19456
2017-07-30T06:34:20.888Z,23232
2017-07-30T06:35:20.975Z,23072
2017-07-30T06:36:20.807Z,26048
2017-07-30T06:37:21.151Z,27168
2017-07-30T06:38:20.712Z,27392
2017-07-30T06:39:35.323Z,28768
2017-07-30T06:40:20.696Z,25504
2017-07-30T06:41:20.671Z,15596
2017-07-30T06:42:20.653Z,11064
2017-07-30T06:43:20.351Z,20832
2017-07-30T06:44:20.353Z,30336
2017-07-30T06:45:20.314Z,32160
2017-07-30T06:46:20.301Z,32736
2017-07-30T06:47:20.595Z,34752
2017-07-30T06:48:20.594Z,33952
2017-07-30T06:49:20.563Z,31808
2017-07-30T06:50:20.255Z,28544
2017-07-30T06:51:20.541Z,17408
2017-07-30T06:52:20.523Z,21312
2017-07-30T06:53:20.508Z,19872
2017-07-30T06:54:20.509Z,14792
2017-07-30T06:55:20.483Z,14260
2017-07-30T06:56:20.238Z,16608
2017-07-30T06:57:20.475Z,22688
2017-07-30T06:58:20.456Z,18528
2017-07-30T06:59:20.445Z,16992
2017-07-30T07:00:20.434Z,14360
2017-07-30T07:01:20.416Z,22368
2017-07-30T07:02:20.405Z,23264
2017-07-30T07:03:20.390Z,28160
2017-07-30T07:04:20.383Z,29344
2017-07-30T07:05:20.384Z,22560
2017-07-30T07:06:20.354Z,16672
2017-07-30T07:07:20.039Z,18144
2017-07-30T07:08:20.350Z,16576
2017-07-30T07:09:20.319Z,16384
2017-07-30T07:10:20.305Z,16928
2017-07-30T07:11:20.548Z,15180
2017-07-30T07:12:20.289Z,13412
2017-07-30T07:13:20.272Z,13884
2017-07-30T07:14:20.253Z,15036
2017-07-30T07:15:20.297Z,14616
2017-07-30T07:16:20.270Z,24224
2017-07-30T07:17:20.262Z,21536
2017-07-30T07:18:20.209Z,22208
2017-07-30T07:19:20.196Z,24448
2017-07-30T07:20:20.185Z,29216
2017-07-30T07:21:19.868Z,13112
2017-07-30T07:22:20.163Z,27584
2017-07-30T07:23:20.136Z,19232
2017-07-30T07:24:20.125Z,16224
2017-07-30T07:25:20.115Z,14468
2017-07-30T07:26:20.102Z,13068
2017-07-30T07:27:20.095Z,24992
2017-07-30T07:28:20.077Z,13796
2017-07-30T07:29:20.072Z,15500
2017-07-30T07:30:20.057Z,13428
2017-07-30T07:31:19.796Z,15148
2017-07-30T07:32:20.075Z,14764
2017-07-30T07:33:20.011Z,22816
2017-07-30T07:34:20.014Z,21376
2017-07-30T07:35:19.985Z,19840
2017-07-30T07:36:19.967Z,24672
2017-07-30T07:37:19.958Z,23488
2017-07-30T07:38:19.947Z,27008
2017-07-30T07:39:19.680Z,30368
2017-07-30T07:40:19.911Z,41440
2017-07-30T07:41:19.903Z,43072
2017-07-30T07:42:19.899Z,24416
2017-07-30T07:43:19.873Z,25824
2017-07-30T07:44:19.870Z,31104
2017-07-30T07:45:19.858Z,34304
2017-07-30T07:46:19.839Z,23584
2017-07-30T07:47:19.835Z,12816
2017-07-30T07:48:19.830Z,11936
2017-07-30T07:49:19.802Z,12044
2017-07-30T07:50:19.809Z,12456
2017-07-30T07:51:19.790Z,13556
2017-07-30T07:52:19.764Z,14352
2017-07-30T07:53:19.756Z,37440
2017-07-30T07:54:19.759Z,22496
2017-07-30T07:55:19.430Z,13956
2017-07-30T07:56:19.728Z,19296
2017-07-30T07:57:19.712Z,17344
2017-07-30T07:58:19.696Z,17664
2017-07-30T07:59:19.674Z,13484
2017-07-30T08:00:19.671Z,21344
2017-07-30T08:01:19.401Z,14388
2017-07-30T08:02:19.647Z,8712
2017-07-30T08:03:19.627Z,8392
2017-07-30T08:04:19.609Z,12484
2017-07-30T08:05:19.603Z,9864
2017-07-30T08:06:19.297Z,8220
2017-07-30T08:07:18.967Z,22592
2017-07-30T08:08:19.579Z,13424
2017-07-30T08:09:19.596Z,24320
2017-07-30T08:10:19.230Z,15184
2017-07-30T08:11:19.535Z,16768
2017-07-30T08:12:19.516Z,34112
2017-07-30T08:13:19.596Z,18848
2017-07-30T08:14:19.535Z,21760
2017-07-30T08:15:19.454Z,71936
2017-07-30T08:16:19.453Z,56384
2017-07-30T08:17:19.428Z,28128
2017-07-30T08:18:19.431Z,20352
2017-07-30T08:19:19.405Z,24448
2017-07-30T08:20:19.392Z,28128
2017-07-30T08:21:19.453Z,18816
2017-07-30T08:22:19.378Z,27520
2017-07-30T08:23:19.057Z,47232
2017-07-30T08:24:19.329Z,18752
2017-07-30T08:25:19.333Z,15256
2017-07-30T08:26:19.365Z,11524
2017-07-30T08:27:19.295Z,9164
2017-07-30T08:28:19.292Z,15120
2017-07-30T08:29:19.272Z,12552
2017-07-30T08:30:18.960Z,18784
2017-07-30T08:31:19.260Z,20960
2017-07-30T08:32:19.293Z,17152
2017-07-30T08:33:19.233Z,19744
2017-07-30T08:34:18.908Z,17312
2017-07-30T08:35:19.245Z,16640
2017-07-30T08:36:19.249Z,17312
2017-07-30T08:37:19.226Z,22080
2017-07-30T08:38:19.156Z,15144
2017-07-30T08:39:19.155Z,17696
2017-07-30T08:40:19.172Z,19744
2017-07-30T08:41:18.817Z,44416
2017-07-30T08:42:19.099Z,16928
2017-07-30T08:43:19.086Z,25504
2017-07-30T08:44:19.075Z,18592
2017-07-30T08:45:19.052Z,18016
2017-07-30T08:46:18.745Z,14576
2017-07-30T08:47:19.075Z,14912
2017-07-30T08:48:19.018Z,16392
2017-07-30T08:49:19.018Z,12636
2017-07-30T08:50:18.991Z,10204
2017-07-30T08:51:18.996Z,19808
2017-07-30T08:52:18.676Z,26176
2017-07-30T08:53:18.950Z,17376
2017-07-30T08:54:18.975Z,16384
2017-07-30T08:55:18.617Z,21344
2017-07-30T08:56:18.606Z,69600
2017-07-30T08:57:18.941Z,14572
2017-07-30T08:58:18.889Z,9808
2017-07-30T08:59:18.877Z,19360
2017-07-30T09:00:18.856Z,21824
2017-07-30T09:01:18.851Z,32800
2017-07-30T09:02:18.531Z,19744
2017-07-30T09:03:18.863Z,18880
2017-07-30T09:04:18.503Z,8624
2017-07-30T09:05:18.781Z,9688
2017-07-30T09:06:18.832Z,8872
2017-07-30T09:07:18.765Z,10060
2017-07-30T09:08:18.753Z,7916
2017-07-30T09:09:18.733Z,7288
2017-07-30T09:10:18.418Z,9248
2017-07-30T09:11:18.806Z,9168
2017-07-30T09:12:18.693Z,7576
2017-07-30T09:13:18.688Z,7788
2017-07-30T09:14:18.360Z,8740
2017-07-30T09:15:18.667Z,7248
2017-07-30T09:16:18.334Z,8728
2017-07-30T09:17:18.641Z,10008
2017-07-30T09:18:18.622Z,8336
2017-07-30T09:19:18.018Z,7416
2017-07-30T09:20:18.284Z,10884
2017-07-30T09:21:18.579Z,13208
2017-07-30T09:22:18.587Z,15904
2017-07-30T09:23:18.541Z,11820
2017-07-30T09:24:18.525Z,17152
2017-07-30T09:25:18.513Z,17856
2017-07-30T09:26:18.491Z,20000
2017-07-30T09:27:18.476Z,19296
2017-07-30T09:28:18.503Z,21888
2017-07-30T09:29:18.463Z,18016
2017-07-30T09:30:18.423Z,17792
2017-07-30T09:31:17.816Z,19552
2017-07-30T09:32:18.103Z,24096
2017-07-30T09:33:18.096Z,20320
2017-07-30T09:34:18.388Z,18912
2017-07-30T09:35:18.563Z,17984
2017-07-30T09:36:18.390Z,17376
2017-07-30T09:37:18.386Z,36096
2017-07-30T09:38:18.314Z,68416
2017-07-30T09:39:32.903Z,32576
2017-07-30T09:40:17.985Z,71744
2017-07-30T09:41:18.274Z,55200
2017-07-30T09:42:18.259Z,70560
2017-07-30T09:43:18.248Z,40448
2017-07-30T09:44:18.231Z,37184
2017-07-30T09:45:18.213Z,40704
2017-07-30T09:46:17.906Z,71488
2017-07-30T09:47:18.191Z,73280
2017-07-30T09:48:18.184Z,73696
2017-07-30T09:49:18.172Z,77728
2017-07-30T09:50:18.165Z,33568
2017-07-30T09:51:18.158Z,81664
2017-07-30T09:52:18.194Z,26400
2017-07-30T09:53:18.133Z,27840
2017-07-30T09:54:17.514Z,14352
2017-07-30T09:55:18.120Z,10032
2017-07-30T09:56:17.847Z,10196
2017-07-30T09:57:17.840Z,28928
2017-07-30T09:58:18.086Z,12820
2017-07-30T09:59:17.782Z,11924
2017-07-30T10:00:18.061Z,13752
2017-07-30T10:01:17.753Z,16832
2017-07-30T10:02:18.082Z,20352
2017-07-30T10:03:18.025Z,17696
2017-07-30T10:04:18.067Z,19616
2017-07-30T10:05:17.995Z,22624
2017-07-30T10:06:17.987Z,24096
2017-07-30T10:07:17.722Z,29248
2017-07-30T10:08:18.023Z,33760
2017-07-30T10:09:17.960Z,30176
2017-07-30T10:10:17.950Z,82880
2017-07-30T10:11:17.638Z,27168
2017-07-30T10:12:17.978Z,23072
2017-07-30T10:13:17.353Z,22976
2017-07-30T10:14:17.897Z,30208
2017-07-30T10:15:17.932Z,29600
2017-07-30T10:16:17.875Z,36512
2017-07-30T10:17:17.618Z,48448
2017-07-30T10:18:17.845Z,73056
2017-07-30T10:19:17.844Z,27264
2017-07-30T10:20:17.834Z,32064
2017-07-30T10:21:17.825Z,46368
2017-07-30T10:22:17.807Z,40352
2017-07-30T10:23:17.847Z,24320
2017-07-30T10:24:17.790Z,21280
2017-07-30T10:25:17.774Z,32736
2017-07-30T10:26:17.767Z,39296
2017-07-30T10:27:17.751Z,30752
2017-07-30T10:28:17.738Z,37184
2017-07-30T10:29:17.721Z,34336
2017-07-30T10:30:17.719Z,33536
2017-07-30T10:31:17.698Z,30784
2017-07-30T10:32:17.693Z,20768
2017-07-30T10:33:17.669Z,17888
2017-07-30T10:34:17.666Z,19808
2017-07-30T10:35:17.651Z,24864
2017-07-30T10:36:17.649Z,19584
2017-07-30T10:37:17.630Z,14960
2017-07-30T10:38:17.625Z,10564
2017-07-30T10:39:17.303Z,6924
2017-07-30T10:40:17.598Z,8688
2017-07-30T10:41:17.577Z,12264
2017-07-30T10:42:17.563Z,13488
2017-07-30T10:43:17.559Z,13744
2017-07-30T10:44:17.555Z,12260
2017-07-30T10:45:17.535Z,11940
2017-07-30T10:46:17.524Z,16288
2017-07-30T10:47:17.515Z,22368
2017-07-30T10:48:17.490Z,24288
2017-07-30T10:49:17.486Z,32480
2017-07-30T10:50:17.465Z,26560
2017-07-30T10:51:17.470Z,23552
2017-07-30T10:52:17.439Z,26592
2017-07-30T10:53:17.424Z,36000
2017-07-30T10:54:17.409Z,30080
2017-07-30T10:55:17.407Z,35648
2017-07-30T10:56:17.389Z,34944
2017-07-30T10:57:17.387Z,35872
2017-07-30T10:58:17.416Z,38656
2017-07-30T10:59:17.360Z,41888
2017-07-30T11:00:17.331Z,42560
2017-07-30T11:01:17.318Z,40352
2017-07-30T11:02:17.311Z,40576
2017-07-30T11:03:17.327Z,42080
2017-07-30T11:04:17.310Z,37888
2017-07-30T11:05:17.277Z,37376
2017-07-30T11:06:17.308Z,38080
2017-07-30T11:07:17.479Z,40672
2017-07-30T11:08:17.243Z,38240
2017-07-30T11:09:17.225Z,31552
2017-07-30T11:10:17.212Z,36640
2017-07-30T11:11:17.208Z,29728
2017-07-30T11:12:17.244Z,29856
2017-07-30T11:13:17.192Z,28672
2017-07-30T11:14:17.385Z,23552
2017-07-30T11:15:17.159Z,25312
2017-07-30T11:16:17.144Z,25824
2017-07-30T11:17:17.157Z,25536
2017-07-30T11:18:17.124Z,24160
2017-07-30T11:19:17.121Z,24544
2017-07-30T11:20:16.801Z,25248
2017-07-30T11:21:17.092Z,22240
2017-07-30T11:22:17.087Z,20544
2017-07-30T11:23:17.076Z,20672
2017-07-30T11:24:17.058Z,22688
2017-07-30T11:25:16.753Z,20320
2017-07-30T11:26:17.087Z,21504
2017-07-30T11:27:16.722Z,19328
2017-07-30T11:28:17.060Z,19936
2017-07-30T11:29:17.004Z,22144
2017-07-30T11:30:16.991Z,24032
2017-07-30T11:31:16.679Z,24768
2017-07-30T11:32:16.661Z,24672
2017-07-30T11:33:16.958Z,24096
2017-07-30T11:34:16.938Z,23264
2017-07-30T11:35:16.655Z,20832
2017-07-30T11:36:16.927Z,20992
2017-07-30T11:37:16.601Z,20448
2017-07-30T11:38:17.127Z,21760
2017-07-30T11:39:16.924Z,21184
2017-07-30T11:40:16.892Z,19520
2017-07-30T11:41:16.854Z,18432
2017-07-30T11:42:16.541Z,16704
2017-07-30T11:43:16.533Z,15660
2017-07-30T11:44:16.818Z,15212
2017-07-30T11:45:16.809Z,15088
2017-07-30T11:46:16.787Z,13724
2017-07-30T11:47:16.828Z,12664
2017-07-30T11:48:16.777Z,11148
2017-07-30T11:49:16.454Z,9812
2017-07-30T11:50:16.749Z,8692
2017-07-30T11:51:16.718Z,7908
2017-07-30T11:52:16.726Z,7608
2017-07-30T11:53:16.750Z,8192
2017-07-30T11:54:16.684Z,7824
2017-07-30T11:55:16.401Z,7124
2017-07-30T11:56:16.662Z,7224
2017-07-30T11:57:16.650Z,7692
2017-07-30T11:58:16.630Z,7580
2017-07-30T11:59:16.622Z,8244
2017-07-30T12:00:16.608Z,7764
2017-07-30T12:01:16.593Z,7672
2017-07-30T12:02:16.285Z,8536
2017-07-30T12:03:16.265Z,8176
2017-07-30T12:04:16.254Z,6944
2017-07-30T12:05:16.288Z,7052
2017-07-30T12:06:16.737Z,8732
2017-07-30T12:07:16.501Z,7664
2017-07-30T12:08:16.188Z,7696
2017-07-30T12:09:16.437Z,8188
2017-07-30T12:10:16.460Z,8796
2017-07-30T12:11:16.446Z,9488
2017-07-30T12:12:16.160Z,10348
2017-07-30T12:13:16.622Z,11516
2017-07-30T12:14:16.161Z,12740
2017-07-30T12:15:16.403Z,13940
2017-07-30T12:16:16.377Z,15064
2017-07-30T12:17:16.662Z,16204
2017-07-30T12:18:16.361Z,17280
2017-07-30T12:19:16.380Z,17856
2017-07-30T12:20:30.926Z,18464
2017-07-30T12:21:16.299Z,18784
2017-07-30T12:22:16.284Z,19136
2017-07-30T12:23:16.374Z,19072
2017-07-30T12:24:15.955Z,19200
2017-07-30T12:25:16.466Z,19136
2017-07-30T12:26:16.241Z,19264
2017-07-30T12:27:16.219Z,19392
2017-07-30T12:28:16.190Z,19168
2017-07-30T12:29:16.205Z,19072
2017-07-30T12:30:16.171Z,19168
2017-07-30T12:31:16.402Z,19040
2017-07-30T12:32:16.138Z,18880
2017-07-30T12:33:16.113Z,18432
2017-07-30T12:34:16.102Z,18208
2017-07-30T12:35:16.091Z,17952
2017-07-30T12:36:16.107Z,17856
2017-07-30T12:37:16.076Z,17152
2017-07-30T12:38:15.759Z,15452
2017-07-30T12:39:16.040Z,14092
2017-07-30T12:40:16.029Z,14056
2017-07-30T12:41:16.212Z,16480
2017-07-30T12:42:16.002Z,17504
2017-07-30T12:43:15.983Z,18336
2017-07-30T12:44:16.022Z,18272
2017-07-30T12:45:15.958Z,17696
2017-07-30T12:46:15.979Z,17696
2017-07-30T12:47:16.174Z,17312
2017-07-30T12:48:15.923Z,16832
2017-07-30T12:49:15.893Z,16736
2017-07-30T12:50:15.932Z,16736
2017-07-30T12:51:15.883Z,15524
2017-07-30T12:52:15.885Z,14276
2017-07-30T12:53:15.849Z,13616
2017-07-30T12:54:15.824Z,13448
2017-07-30T12:55:15.814Z,12836
2017-07-30T12:56:15.804Z,12324
2017-07-30T12:57:15.785Z,11892
2017-07-30T12:58:15.774Z,12056
2017-07-30T12:59:15.764Z,12944
2017-07-30T13:00:15.804Z,13036
2017-07-30T13:01:15.731Z,13224
2017-07-30T13:02:15.424Z,12884
2017-07-30T13:03:15.697Z,12532
2017-07-30T13:04:15.685Z,12132
2017-07-30T13:05:15.378Z,12084
2017-07-30T13:06:15.357Z,12644
2017-07-30T13:07:15.340Z,12084
2017-07-30T13:08:15.645Z,11928
2017-07-30T13:09:15.609Z,12236
2017-07-30T13:10:15.664Z,12908
2017-07-30T13:11:15.597Z,12716
2017-07-30T13:12:15.576Z,12224
2017-07-30T13:13:15.550Z,12624
2017-07-30T13:14:15.265Z,13184
2017-07-30T13:15:15.232Z,13040
2017-07-30T13:16:15.522Z,12884
2017-07-30T13:17:15.498Z,12932
2017-07-30T13:18:15.502Z,12852
2017-07-30T13:19:15.675Z,13724
2017-07-30T13:20:15.363Z,12408
2017-07-30T13:21:15.134Z,11544
2017-07-30T13:22:15.430Z,11600
2017-07-30T13:23:15.411Z,10372
2017-07-30T13:24:15.395Z,9904
2017-07-30T13:25:15.380Z,10084
2017-07-30T13:26:15.367Z,11992
2017-07-30T13:27:15.349Z,11184
2017-07-30T13:28:15.345Z,11052
2017-07-30T13:29:15.327Z,10052
2017-07-30T13:30:15.004Z,8472